Time;durP1;ratioP1;P1;durP2;ratioP2;P2;SDS_P1;SDS_P2;PMS_P1;PMS_P2;Temp;Humidity;BMP_temperature;BMP_pressure;BME280_temperature;BME280_humidity;BME280_pressure;Samples;Min_cycle;Max_cycle;Signal;HPM_P1;HPM_P2
2021/10/22 00:02:17;;;;;;;10.50;2.70;;;;;;;8.17;67.28;98782.00;6223047;23;20406;-78
2021/10/22 00:04:42;;;;;;;16.13;3.20;;;;;;;8.37;67.72;98826.38;6249049;22;20062;-78
2021/10/22 00:07:09;;;;;;;6.68;1.50;;;;;;;8.22;68.38;98786.66;6222290;23;20094;-79
2021/10/22 00:09:34;;;;;;;11.63;1.85;;;;;;;8.12;70.29;98773.84;6222223;23;20014;-78
2021/10/22 00:12:01;;;;;;;8.10;1.52;;;;;;;8.31;69.35;98803.19;6252077;23;20363;-78
2021/10/22 00:14:26;;;;;;;7.15;1.45;;;;;;;8.27;66.21;98786.78;6248710;22;20051;-78
2021/10/22 00:16:52;;;;;;;8.15;1.85;;;;;;;8.25;67.87;98807.63;6222143;23;20069;-78
2021/10/22 00:19:17;;;;;;;12.50;2.25;;;;;;;8.04;68.76;98787.59;6221660;23;20062;-78
2021/10/22 00:21:43;;;;;;;12.43;2.17;;;;;;;8.23;70.00;98818.56;6248602;22;20389;-78
2021/10/22 00:24:08;;;;;;;12.32;2.05;;;;;;;8.14;67.94;98825.31;6221110;23;20008;-78
2021/10/22 00:26:34;;;;;;;10.73;2.25;;;;;;;8.13;69.31;98830.94;6246831;23;20012;-78
2021/10/22 00:29:00;;;;;;;11.45;1.90;;;;;;;8.16;69.11;98830.47;6248060;22;20240;-78
2021/10/22 00:31:25;;;;;;;15.45;1.92;;;;;;;8.05;72.00;98810.66;6247979;22;20007;-79
2021/10/22 00:33:51;;;;;;;12.20;2.22;;;;;;;8.23;74.30;98825.81;6248623;22;20071;-78
2021/10/22 00:36:18;;;;;;;15.30;4.20;;;;;;;8.27;71.58;98802.84;6221702;23;20015;-79
2021/10/22 00:38:43;;;;;;;12.23;2.45;;;;;;;8.32;73.77;98837.00;6247319;22;20012;-79
2021/10/22 00:41:10;;;;;;;15.23;3.35;;;;;;;8.00;70.89;98781.88;6247062;23;20427;-79
2021/10/22 00:43:35;;;;;;;14.27;2.67;;;;;;;8.22;69.76;98818.81;6246355;23;20015;-78
2021/10/22 00:46:01;;;;;;;15.43;3.28;;;;;;;8.26;69.98;98803.91;6221571;23;20020;-78
2021/10/22 00:48:27;;;;;;;13.48;1.88;;;;;;;8.22;67.21;98811.59;6246857;23;20287;-78
2021/10/22 00:50:58;;;;;;;19.48;3.13;;;;;;;8.04;68.92;98803.66;6247501;22;20043;-78
2021/10/22 00:53:25;;;;;;;10.32;2.20;;;;;;;8.15;67.09;98821.63;6247158;23;20004;-78
2021/10/22 00:55:51;;;;;;;14.18;2.20;;;;;;;7.82;67.05;98757.09;6221039;23;19996;-78
2021/10/22 00:58:17;;;;;;;10.93;2.30;;;;;;;8.23;68.40;98823.13;6222063;23;20299;-78
2021/10/22 01:00:42;;;;;;;11.13;1.75;;;;;;;8.21;69.13;98843.97;6246558;23;20011;-78
2021/10/22 01:03:09;;;;;;;11.77;2.00;;;;;;;8.04;68.53;98813.56;6247892;23;20027;-78
2021/10/22 01:05:35;;;;;;;12.20;1.73;;;;;;;8.15;67.85;98851.09;6248038;23;20011;-78
2021/10/22 01:08:01;;;;;;;10.75;2.45;;;;;;;8.23;65.34;98801.69;6221412;23;20012;-78
2021/10/22 01:10:27;;;;;;;10.43;1.55;;;;;;;7.85;66.64;98786.88;6247450;22;20272;-78
2021/10/22 01:12:54;;;;;;;8.30;1.75;;;;;;;8.19;66.48;98838.03;6246242;22;20066;-78
2021/10/22 01:15:21;;;;;;;7.43;1.20;;;;;;;8.18;69.68;98852.50;6247317;23;20020;-78
2021/10/22 01:17:53;;;;;;;10.60;2.03;;;;;;;7.96;69.10;98820.06;6247072;23;20004;-78
2021/10/22 01:20:22;;;;;;;7.65;1.95;;;;;;;8.09;69.23;98843.97;6249222;22;20073;-78
2021/10/22 01:22:51;;;;;;;12.40;2.45;;;;;;;8.02;70.92;98821.03;6249670;22;20004;-78
2021/10/22 01:25:19;;;;;;;13.82;1.33;;;;;;;8.10;70.32;98842.91;6246661;23;20449;-77
2021/10/22 01:27:46;;;;;;;12.90;2.00;;;;;;;8.05;70.51;98837.44;6248315;22;20000;-78
2021/10/22 01:30:13;;;;;;;7.68;1.73;;;;;;;8.10;71.90;98844.78;6247093;22;20016;-78
2021/10/22 01:32:39;;;;;;;10.90;2.08;;;;;;;7.81;72.62;98806.31;6247246;22;20315;-78
2021/10/22 01:35:06;;;;;;;8.90;1.23;;;;;;;8.07;73.20;98847.91;6247439;22;20016;-78
2021/10/22 01:37:31;;;;;;;13.77;2.60;;;;;;;7.86;74.27;98787.69;6247799;22;20008;-78
2021/10/22 01:39:57;;;;;;;14.38;2.30;;;;;;;8.08;74.70;98836.16;6246304;23;20028;-78
2021/10/22 01:42:23;;;;;;;11.13;1.85;;;;;;;8.16;73.52;98827.78;6246715;23;20307;-78
2021/10/22 01:44:49;;;;;;;12.73;2.33;;;;;;;8.23;74.63;98833.84;6245846;23;20425;-78
2021/10/22 01:47:24;;;;;;;9.02;1.92;;;;;;;8.19;70.65;98832.69;6248131;22;20040;-78
2021/10/22 01:49:51;;;;;;;8.98;1.63;;;;;;;8.07;69.56;98799.69;6245941;23;20143;-78
2021/10/22 01:52:17;;;;;;;11.30;1.75;;;;;;;8.36;70.83;98828.25;6247129;23;20319;-79
2021/10/22 01:54:42;;;;;;;12.75;2.70;;;;;;;8.28;66.36;98809.00;6247111;23;20061;-78
2021/10/22 01:57:10;;;;;;;9.35;2.15;;;;;;;8.28;67.01;98780.38;6244910;23;20408;-78
2021/10/22 01:59:36;;;;;;;8.90;1.27;;;;;;;8.37;66.64;98834.41;6246982;23;20306;-78
2021/10/22 02:02:02;;;;;;;8.98;1.42;;;;;;;8.40;68.73;98837.47;6247424;22;20009;-78
2021/10/22 02:04:28;;;;;;;10.38;2.25;;;;;;;8.34;68.84;98843.75;6245965;23;20027;-78
2021/10/22 02:06:54;;;;;;;8.07;1.65;;;;;;;8.29;68.67;98848.19;6220796;23;20036;-78
2021/10/22 02:09:19;;;;;;;9.00;1.65;;;;;;;8.22;68.80;98851.78;6249493;23;20003;-78
2021/10/22 02:11:45;;;;;;;9.15;1.75;;;;;;;8.07;70.50;98805.06;6252652;22;20068;-78
2021/10/22 02:14:11;;;;;;;11.25;1.90;;;;;;;8.22;70.09;98834.91;6248750;23;20093;-78
2021/10/22 02:16:37;;;;;;;14.10;2.38;;;;;;;8.24;69.45;98801.47;6246958;23;20004;-78
2021/10/22 02:19:03;;;;;;;9.68;1.95;;;;;;;8.20;71.56;98845.03;6245310;23;20008;-78
2021/10/22 02:21:28;;;;;;;10.80;1.88;;;;;;;8.21;71.71;98847.47;6246627;23;20011;-78
2021/10/22 02:23:54;;;;;;;8.60;1.52;;;;;;;8.21;70.69;98852.00;6247467;23;20067;-78
2021/10/22 02:26:19;;;;;;;7.22;1.45;;;;;;;8.17;69.10;98845.47;6247090;23;20066;-78
2021/10/22 02:28:44;;;;;;;16.08;2.05;;;;;;;8.12;71.02;98840.81;6248440;22;20008;-77
2021/10/22 02:31:10;;;;;;;7.95;1.70;;;;;;;8.07;70.42;98840.69;6199188;23;20013;-79
2021/10/22 02:33:35;;;;;;;13.52;1.80;;;;;;;7.98;70.61;98826.84;6248221;22;20012;-78
2021/10/22 02:36:01;;;;;;;11.45;1.77;;;;;;;8.09;68.29;98848.50;6245655;23;20004;-78
2021/10/22 02:38:26;;;;;;;7.10;1.13;;;;;;;8.09;68.08;98843.16;6248025;22;20008;-78
2021/10/22 02:40:52;;;;;;;6.47;1.48;;;;;;;7.98;69.19;98809.97;6248606;22;20357;-78
2021/10/22 02:43:17;;;;;;;11.10;1.80;;;;;;;8.17;71.78;98840.94;6250583;22;20008;-78
2021/10/22 02:45:43;;;;;;;5.53;1.20;;;;;;;8.17;71.32;98837.44;6250529;22;20012;-78
2021/10/22 02:48:08;;;;;;;9.50;1.35;;;;;;;8.15;70.28;98836.88;6248995;23;20004;-78
2021/10/22 02:50:34;;;;;;;6.70;0.88;;;;;;;8.14;69.16;98845.94;6247272;22;20000;-78
2021/10/22 02:53:01;;;;;;;9.82;1.20;;;;;;;8.10;70.00;98836.75;6247143;22;20073;-78
2021/10/22 02:55:28;;;;;;;12.77;1.85;;;;;;;8.00;69.11;98803.31;6246446;22;20004;-78
2021/10/22 02:57:53;;;;;;;14.45;1.50;;;;;;;8.19;70.79;98848.75;6247417;22;20004;-78
2021/10/22 03:00:18;;;;;;;7.18;1.27;;;;;;;7.74;70.84;98782.31;6220044;23;20004;-78
2021/10/22 03:02:45;;;;;;;9.70;1.60;;;;;;;8.08;70.85;98836.16;6245379;23;20089;-77
2021/10/22 03:05:11;;;;;;;10.43;1.48;;;;;;;7.67;71.99;98769.03;6247250;22;20004;-78
2021/10/22 03:07:39;;;;;;;9.70;2.00;;;;;;;7.97;74.53;98829.72;6244751;23;20004;-79
2021/10/22 03:10:06;;;;;;;7.22;1.23;;;;;;;8.04;73.30;98834.97;6246134;22;20004;-78
2021/10/22 03:12:32;;;;;;;8.65;1.30;;;;;;;7.97;72.11;98827.88;6247734;22;20020;-78
2021/10/22 03:14:57;;;;;;;7.07;1.65;;;;;;;8.03;72.79;98820.78;6247829;22;20016;-78
2021/10/22 03:17:23;;;;;;;11.27;1.27;;;;;;;7.99;74.05;98835.69;6221843;23;20091;-78
2021/10/22 03:19:49;;;;;;;7.43;1.35;;;;;;;7.93;74.68;98834.72;6245746;23;20022;-78
2021/10/22 03:22:15;;;;;;;6.47;1.15;;;;;;;8.04;74.74;98829.63;6247941;22;20150;-78
2021/10/22 03:24:40;;;;;;;4.88;1.20;;;;;;;8.04;74.48;98840.34;6247964;23;20015;-78
2021/10/22 03:27:11;;;;;;;5.88;1.10;;;;;;;7.93;72.19;98796.44;6248355;23;20066;-79
2021/10/22 03:29:37;;;;;;;5.28;1.05;;;;;;;8.04;72.61;98838.47;6248336;23;20008;-78
2021/10/22 03:32:03;;;;;;;11.30;1.75;;;;;;;7.93;74.79;98802.59;6248362;23;20015;-78
2021/10/22 03:34:28;;;;;;;8.50;1.40;;;;;;;7.95;74.74;98808.56;6222530;23;20303;-78
2021/10/22 03:36:55;;;;;;;6.57;1.08;;;;;;;7.92;75.10;98809.00;6250166;22;20034;-79
2021/10/22 03:39:20;;;;;;;6.18;1.45;;;;;;;7.91;74.29;98826.13;6247832;23;20019;-79
2021/10/22 03:41:46;;;;;;;5.25;0.95;;;;;;;8.01;73.26;98836.25;6225976;23;20012;-78
2021/10/22 03:44:11;;;;;;;7.03;1.20;;;;;;;7.71;73.84;98796.97;6222254;23;20012;-78
2021/10/22 03:46:37;;;;;;;5.18;0.93;;;;;;;7.96;72.71;98834.28;6250477;22;20004;-78
2021/10/22 03:49:02;;;;;;;8.63;1.45;;;;;;;7.99;74.91;98835.69;6248395;22;20004;-78
2021/10/22 03:51:28;;;;;;;9.57;1.40;;;;;;;7.98;75.15;98831.38;6221921;23;20012;-78
2021/10/22 03:53:54;;;;;;;7.50;1.25;;;;;;;7.96;74.98;98834.28;6247864;22;20012;-79
2021/10/22 03:56:20;;;;;;;10.23;1.27;;;;;;;7.96;75.59;98836.16;6248508;22;20455;-78
2021/10/22 03:58:45;;;;;;;13.07;1.58;;;;;;;7.95;76.71;98815.78;6247136;23;20018;-78
2021/10/22 04:01:11;;;;;;;7.00;0.95;;;;;;;8.00;76.07;98837.31;6248749;22;20036;-78
2021/10/22 04:03:36;;;;;;;7.35;1.30;;;;;;;7.79;75.65;98811.91;6248039;22;20054;-78
2021/10/22 04:06:02;;;;;;;6.57;1.42;;;;;;;7.85;74.92;98827.06;6246699;23;20008;-78
2021/10/22 04:08:28;;;;;;;11.63;1.48;;;;;;;7.85;76.49;98837.75;6222197;23;20011;-78
2021/10/22 04:10:54;;;;;;;23.38;1.98;;;;;;;7.88;77.90;98839.13;6222103;23;20012;-79
2021/10/22 04:13:19;;;;;;;5.30;0.80;;;;;;;7.86;76.75;98833.22;6245951;23;20462;-78
2021/10/22 04:15:48;;;;;;;6.07;1.10;;;;;;;7.82;75.90;98843.56;6247130;23;20040;-78
2021/10/22 04:18:14;;;;;;;6.28;1.10;;;;;;;7.66;75.47;98798.72;6247648;22;19999;-78
2021/10/22 04:20:39;;;;;;;14.23;1.30;;;;;;;7.85;75.90;98835.09;6247062;23;20008;-78
2021/10/22 04:23:05;;;;;;;9.52;1.73;;;;;;;7.83;77.82;98817.59;6248459;22;20327;-78
2021/10/22 04:25:30;;;;;;;9.77;1.98;;;;;;;7.88;77.28;98834.63;6246059;23;20028;-78
2021/10/22 04:27:55;;;;;;;6.00;1.23;;;;;;;7.88;75.09;98829.28;6248530;22;20066;-78
2021/10/22 04:30:22;;;;;;;7.50;1.10;;;;;;;7.84;73.97;98835.28;6247681;22;20019;-79
2021/10/22 04:32:47;;;;;;;4.03;0.60;;;;;;;7.68;70.30;98796.59;6246309;23;20004;-79
2021/10/22 04:35:13;;;;;;;8.85;1.23;;;;;;;7.91;69.55;98819.94;6220593;23;20098;-78
2021/10/22 04:40:31;;;;;;;8.63;1.10;;;;;;;7.85;70.02;98804.81;6257805;22;20011;-78
2021/10/22 04:43:04;;;;;;;4.93;1.20;;;;;;;8.02;70.85;98827.19;6247328;23;20403;-79
2021/10/22 04:45:32;;;;;;;10.32;1.13;;;;;;;7.91;70.73;98809.22;6246416;23;20047;-78
2021/10/22 04:47:59;;;;;;;7.88;1.45;;;;;;;7.96;70.87;98814.72;6247690;23;20008;-78
2021/10/22 04:50:25;;;;;;;12.38;1.40;;;;;;;7.61;73.18;98771.81;6247873;23;20008;-78
2021/10/22 04:52:54;;;;;;;8.40;1.10;;;;;;;7.73;72.95;98794.06;6224658;23;20011;-79
2021/10/22 04:55:24;;;;;;;7.78;0.88;;;;;;;7.92;73.58;98817.03;6246262;23;20004;-78
2021/10/22 04:57:51;;;;;;;4.57;0.82;;;;;;;7.81;74.22;98807.09;6247344;23;20050;-79
2021/10/22 05:00:16;;;;;;;9.05;1.63;;;;;;;7.93;75.71;98824.03;6246415;23;20012;-79
2021/10/22 05:02:44;;;;;;;7.55;1.10;;;;;;;7.74;75.46;98795.69;6247277;23;20662;-79
2021/10/22 05:05:09;;;;;;;7.63;0.93;;;;;;;7.83;74.80;98822.97;6245671;23;20008;-79
2021/10/22 05:07:35;;;;;;;8.82;1.48;;;;;;;7.77;72.09;98800.59;6250161;23;20030;-79
2021/10/22 05:10:00;;;;;;;5.97;1.02;;;;;;;7.87;72.67;98814.22;6222145;23;20019;-79
2021/10/22 05:12:25;;;;;;;6.13;1.02;;;;;;;7.82;72.66;98822.16;6246643;23;20020;-79
2021/10/22 05:14:51;;;;;;;7.90;1.17;;;;;;;7.80;71.28;98815.38;6220951;23;20465;-79
2021/10/22 05:17:17;;;;;;;5.68;1.20;;;;;;;7.67;70.93;98792.31;6248063;22;20007;-78
2021/10/22 05:19:43;;;;;;;5.30;0.98;;;;;;;7.67;70.67;98800.34;6248161;22;20028;-78
2021/10/22 05:22:08;;;;;;;4.28;0.95;;;;;;;7.73;71.19;98802.91;6248029;23;20414;-78
2021/10/22 05:24:34;;;;;;;7.75;1.60;;;;;;;7.93;70.87;98812.50;6222062;23;20022;-79
2021/10/22 05:27:01;;;;;;;7.35;1.17;;;;;;;7.95;73.33;98829.97;6247799;22;20023;-78
2021/10/22 05:29:26;;;;;;;7.75;1.20;;;;;;;7.72;73.36;98800.47;6245427;23;20000;-79
2021/10/22 05:31:52;;;;;;;7.20;0.90;;;;;;;7.66;73.45;98798.72;6246484;23;20022;-79
2021/10/22 05:34:20;;;;;;;9.18;1.20;;;;;;;7.80;73.21;98810.84;6223477;23;20008;-79
2021/10/22 05:36:47;;;;;;;3.38;0.90;;;;;;;7.91;73.88;98836.84;6227861;23;20004;-79
2021/10/22 05:39:15;;;;;;;6.40;0.90;;;;;;;7.92;75.39;98843.81;6247780;22;20012;-79
2021/10/22 05:41:40;;;;;;;9.45;1.17;;;;;;;7.66;73.55;98799.53;6195914;23;20012;-78
2021/10/22 05:44:06;;;;;;;5.63;1.02;;;;;;;7.82;73.23;98846.25;6220439;23;20359;-78
2021/10/22 05:46:32;;;;;;;12.00;1.38;;;;;;;7.86;74.61;98844.75;6245343;23;20103;-78
2021/10/22 05:48:57;;;;;;;10.00;1.55;;;;;;;7.74;72.36;98850.03;6245631;23;20004;-79
2021/10/22 05:51:23;;;;;;;6.68;0.85;;;;;;;7.83;72.53;98845.19;6246783;22;20417;-78
2021/10/22 05:53:48;;;;;;;5.53;1.00;;;;;;;7.76;73.16;98844.47;6248176;22;20004;-79
2021/10/22 05:56:13;;;;;;;7.13;0.90;;;;;;;7.80;73.99;98852.88;6245934;23;20070;-78
2021/10/22 05:58:39;;;;;;;6.82;1.00;;;;;;;7.80;72.88;98867.06;6223037;23;20008;-79
2021/10/22 06:01:04;;;;;;;7.78;1.05;;;;;;;7.66;73.94;98841.53;6248723;22;20012;-78
2021/10/22 06:03:30;;;;;;;7.38;1.45;;;;;;;7.56;72.97;98822.53;6247263;22;20091;-78
2021/10/22 06:05:55;;;;;;;7.28;1.02;;;;;;;7.74;72.52;98860.75;6219927;23;20295;-78
2021/10/22 06:08:22;;;;;;;12.75;1.33;;;;;;;7.84;73.27;98881.63;6246490;22;20071;-78
2021/10/22 06:10:48;;;;;;;4.53;0.90;;;;;;;7.77;72.18;98876.38;6247132;22;20058;-79
2021/10/22 06:13:17;;;;;;;4.72;0.77;;;;;;;7.78;72.42;98874.50;6245925;22;20346;-78
2021/10/22 06:15:43;;;;;;;5.25;0.88;;;;;;;7.60;71.84;98831.75;6247679;22;20387;-78
2021/10/22 06:18:09;;;;;;;5.35;1.17;;;;;;;7.81;71.35;98866.00;6245823;22;20007;-78
2021/10/22 06:20:54;;;;;;;7.95;1.10;;;;;;;7.83;72.58;98877.31;6246174;22;20122;-78
2021/10/22 06:26:04;;;;;;;5.22;0.90;;;;;;;7.85;70.94;98882.47;6246657;23;20019;-79
2021/10/22 06:28:29;;;;;;;4.88;0.68;;;;;;;7.84;73.23;98876.28;6221714;23;20303;-78
2021/10/22 06:31:03;;;;;;;5.60;0.90;;;;;;;7.85;72.06;98875.25;6222024;23;20090;-78
2021/10/22 06:33:28;;;;;;;5.60;0.80;;;;;;;7.73;72.72;98872.53;6246339;22;20008;-79
2021/10/22 06:35:54;;;;;;;7.53;1.00;;;;;;;7.63;74.32;98864.22;6245729;22;20008;-78
2021/10/22 06:38:21;;;;;;;5.55;0.88;;;;;;;7.79;75.41;98891.41;6245891;22;20496;-78
2021/10/22 06:40:47;;;;;;;5.47;0.77;;;;;;;7.69;73.68;98868.66;6245082;23;20007;-79
2021/10/22 06:43:16;;;;;;;6.18;0.95;;;;;;;7.45;72.42;98841.00;6245255;23;20000;-78
2021/10/22 06:45:42;;;;;;;5.95;1.00;;;;;;;7.79;72.52;98884.19;6220805;23;20042;-79
2021/10/22 06:48:07;;;;;;;5.38;0.70;;;;;;;7.89;74.22;98905.06;6218963;23;20043;-78
2021/10/22 06:50:32;;;;;;;5.32;0.88;;;;;;;7.86;74.34;98910.88;6219866;23;20181;-78
2021/10/22 06:52:58;;;;;;;5.85;0.98;;;;;;;7.79;72.69;98894.91;6246486;22;20019;-77
2021/10/22 06:55:23;;;;;;;6.40;0.80;;;;;;;7.90;72.47;98895.97;6220484;23;20015;-78
2021/10/22 06:57:49;;;;;;;2.42;0.63;;;;;;;7.93;72.96;98899.00;6219801;23;20086;-78
2021/10/22 07:00:14;;;;;;;4.72;0.55;;;;;;;7.96;71.19;98905.78;6221012;23;20022;-77
2021/10/22 07:02:54;;;;;;;8.57;1.05;;;;;;;7.96;70.53;98909.25;6244153;23;20571;-78
2021/10/22 07:05:50;;;;;;;11.15;1.23;;;;;;;7.50;68.92;98841.13;6244708;23;20019;-77
2021/10/22 07:08:15;;;;;;;4.13;0.80;;;;;;;7.99;69.39;98914.16;6226419;23;20008;-78
2021/10/22 07:10:41;;;;;;;9.85;1.30;;;;;;;8.04;70.66;98909.97;6220218;23;20567;-78
2021/10/22 07:13:07;;;;;;;3.88;1.00;;;;;;;8.06;70.21;98907.91;6246444;22;20016;-78
2021/10/22 07:15:35;;;;;;;3.78;0.82;;;;;;;8.06;69.08;98915.94;6222648;23;20023;-78
2021/10/22 07:18:01;;;;;;;6.88;1.08;;;;;;;8.11;70.93;98919.56;6220683;23;20015;-78
2021/10/22 07:20:27;;;;;;;6.35;1.05;;;;;;;8.11;69.93;98924.94;6246885;22;20004;-78
2021/10/22 07:23:04;;;;;;;7.03;1.00;;;;;;;8.08;70.12;98927.22;6245339;23;20038;-79
2021/10/22 07:25:32;;;;;;;5.25;0.75;;;;;;;7.80;70.62;98874.28;6244798;23;20008;-78
2021/10/22 07:28:06;;;;;;;8.82;0.90;;;;;;;8.06;71.58;98919.44;6245381;23;20012;-78
2021/10/22 07:30:31;;;;;;;6.17;0.70;;;;;;;8.01;70.39;98916.59;6221479;23;20418;-78
2021/10/22 07:32:57;;;;;;;5.10;0.80;;;;;;;7.97;69.21;98916.25;6219997;23;20016;-78
2021/10/22 07:35:24;;;;;;;6.72;1.10;;;;;;;8.17;69.08;98931.22;6246389;22;20008;-78
2021/10/22 07:37:49;;;;;;;7.47;1.17;;;;;;;8.22;68.90;98929.47;6245549;23;20004;-78
2021/10/22 07:40:15;;;;;;;2.22;0.57;;;;;;;8.22;68.93;98907.25;6219763;23;20317;-78
2021/10/22 07:42:40;;;;;;;3.47;0.93;;;;;;;8.18;68.39;98911.44;6246346;22;20015;-79
2021/10/22 07:45:06;;;;;;;4.05;0.70;;;;;;;8.37;67.11;98936.25;6219523;23;20097;-79
2021/10/22 07:47:34;;;;;;;5.35;1.23;;;;;;;8.28;66.68;98933.13;6193722;23;20008;-79
2021/10/22 07:50:01;;;;;;;8.13;0.88;;;;;;;8.26;68.19;98937.06;6246394;22;20298;-78
2021/10/22 07:52:29;;;;;;;5.00;0.60;;;;;;;8.26;67.51;98937.06;6245235;23;20008;-78
2021/10/22 07:54:57;;;;;;;5.47;0.73;;;;;;;8.30;65.78;98935.56;6219171;23;20004;-79
2021/10/22 07:57:23;;;;;;;8.13;1.33;;;;;;;8.22;66.53;98926.81;6245684;23;20006;-78
2021/10/22 07:59:50;;;;;;;5.28;0.85;;;;;;;8.32;66.56;98944.19;6246608;23;20004;-78
2021/10/22 08:02:17;;;;;;;6.07;0.85;;;;;;;8.34;67.08;98942.88;6245749;23;20004;-78
2021/10/22 08:04:48;;;;;;;5.50;0.70;;;;;;;8.34;65.86;98942.06;6219559;23;20078;-78
2021/10/22 08:07:16;;;;;;;5.43;0.60;;;;;;;8.27;65.89;98936.00;6244834;23;20043;-79
2021/10/22 08:09:42;;;;;;;7.75;1.23;;;;;;;8.43;67.46;98963.00;6246655;22;20004;-78
2021/10/22 08:12:07;;;;;;;5.15;0.77;;;;;;;8.41;68.16;98954.38;6247628;22;20028;-79
2021/10/22 08:14:33;;;;;;;8.68;1.40;;;;;;;8.35;67.72;98936.50;6246628;23;20302;-79
2021/10/22 08:17:00;;;;;;;5.50;0.70;;;;;;;8.32;68.48;98950.34;6245717;23;20032;-78
2021/10/22 08:19:25;;;;;;;4.18;0.68;;;;;;;8.46;67.51;98962.53;6221638;23;20004;-78
2021/10/22 08:24:41;;;;;;;2.67;0.55;;;;;;;8.53;67.69;98967.78;6248111;23;20014;-78
2021/10/22 08:27:07;;;;;;;3.67;0.73;;;;;;;8.58;69.42;98959.06;6221298;23;20415;-78
2021/10/22 08:29:33;;;;;;;4.40;1.10;;;;;;;8.52;69.18;98965.34;6221972;23;20409;-78
2021/10/22 08:32:00;;;;;;;3.80;0.73;;;;;;;8.36;69.86;98950.72;6246483;23;20012;-77
2021/10/22 08:34:27;;;;;;;6.90;1.00;;;;;;;8.60;68.25;98973.84;6248405;22;20066;-78
2021/10/22 08:36:53;;;;;;;8.05;0.73;;;;;;;8.51;68.69;98958.34;6248373;22;20011;-78
2021/10/22 08:39:19;;;;;;;5.68;0.75;;;;;;;8.58;69.22;98985.88;6248240;22;20073;-78
2021/10/22 08:41:46;;;;;;;10.82;1.70;;;;;;;8.54;69.24;98987.38;6249386;23;20008;-78
2021/10/22 08:44:13;;;;;;;7.20;0.90;;;;;;;8.51;69.78;98975.25;6247786;22;20421;-78
2021/10/22 08:46:41;;;;;;;5.05;0.73;;;;;;;8.53;66.98;98991.09;6246693;23;20608;-78
2021/10/22 08:49:10;;;;;;;7.20;0.70;;;;;;;8.63;69.09;98991.34;6246989;22;20004;-78
2021/10/22 08:51:36;;;;;;;4.72;0.60;;;;;;;8.62;70.28;98998.56;6221671;23;20011;-79
2021/10/22 08:54:01;;;;;;;6.82;1.17;;;;;;;8.44;71.59;99001.31;6220689;23;20016;-78
2021/10/22 08:56:27;;;;;;;8.45;1.02;;;;;;;7.82;70.53;98894.44;6196575;23;20087;-79
2021/10/22 08:58:52;;;;;;;5.03;0.70;;;;;;;8.56;70.00;99015.56;6247077;23;20091;-79
2021/10/22 09:01:18;;;;;;;7.05;0.82;;;;;;;8.50;69.85;99005.78;6248005;22;20003;-79
2021/10/22 09:03:43;;;;;;;6.00;1.17;;;;;;;8.44;69.38;99010.22;6197143;23;20042;-78
2021/10/22 09:06:17;;;;;;;6.07;0.80;;;;;;;8.39;68.66;99012.75;6220194;23;20030;-78
2021/10/22 09:08:44;;;;;;;5.82;1.10;;;;;;;8.40;69.48;99016.22;6222500;23;20099;-79
2021/10/22 09:11:37;;;;;;;4.43;0.95;;;;;;;8.43;68.18;99016.59;6247631;22;20000;-79
2021/10/22 09:14:04;;;;;;;6.80;1.50;;;;;;;8.28;69.52;98977.81;6250385;22;20024;-80
2021/10/22 09:16:30;;;;;;;7.35;1.17;;;;;;;8.44;70.42;99020.94;6249576;22;19996;-81
2021/10/22 09:18:56;;;;;;;6.90;1.00;;;;;;;8.38;68.04;99021.03;6249832;22;20004;-79
2021/10/22 09:21:27;;;;;;;5.32;0.77;;;;;;;8.52;67.80;99029.69;6250738;22;20082;-80
2021/10/22 09:24:12;;;;;;;4.88;1.13;;;;;;;8.45;67.81;99027.91;6251611;22;19999;-80
2021/10/22 09:26:38;;;;;;;6.95;0.85;;;;;;;8.06;67.62;98967.63;6246590;23;20091;-79
2021/10/22 09:29:21;;;;;;;3.47;0.50;;;;;;;8.56;66.64;99017.44;6248776;23;20007;-79
2021/10/22 09:31:49;;;;;;;5.15;0.82;;;;;;;8.62;67.99;99032.63;6243377;22;20087;-79
2021/10/22 09:34:50;;;;;;;6.32;0.75;;;;;;;8.64;68.16;99063.53;6246987;23;20035;-78
2021/10/22 09:37:15;;;;;;;5.00;0.90;;;;;;;8.58;68.29;99039.50;6198776;22;20042;-78
2021/10/22 09:39:41;;;;;;;5.35;0.80;;;;;;;8.81;69.97;99058.31;6245915;23;20037;-78
2021/10/22 09:42:12;;;;;;;9.30;0.95;;;;;;;8.75;69.51;99066.47;6195543;23;20138;-79
2021/10/22 09:44:41;;;;;;;6.28;1.08;;;;;;;8.72;72.40;99074.97;6245800;23;20008;-79
2021/10/22 09:47:06;;;;;;;7.97;1.00;;;;;;;8.69;70.81;99084.28;6246797;23;20069;-79
2021/10/22 09:49:42;;;;;;;4.72;0.93;;;;;;;8.67;69.61;99075.63;6247272;22;20415;-79
2021/10/22 09:52:27;;;;;;;4.22;1.20;;;;;;;8.55;68.48;99093.56;6245805;23;20028;-79
2021/10/22 09:55:14;;;;;;;7.78;1.17;;;;;;;8.59;69.71;99100.09;6245425;23;20022;-79
2021/10/22 09:57:45;;;;;;;7.45;0.80;;;;;;;8.19;70.23;99039.78;6250619;22;20414;-79
2021/10/22 10:00:21;;;;;;;3.42;0.60;;;;;;;8.52;69.69;99115.47;6245575;23;20065;-78
2021/10/22 10:02:47;;;;;;;4.80;0.95;;;;;;;8.36;71.40;99088.19;6246256;22;20019;-78
2021/10/22 10:05:12;;;;;;;4.70;0.65;;;;;;;7.96;70.81;99059.25;6219939;23;20045;-79
2021/10/22 10:07:46;;;;;;;4.32;0.95;;;;;;;8.27;71.29;99113.66;6246168;23;20000;-78
2021/10/22 10:10:13;;;;;;;6.70;1.00;;;;;;;8.33;70.65;99128.84;6244684;23;20004;-78
2021/10/22 10:12:39;;;;;;;5.72;1.05;;;;;;;8.42;71.43;99121.38;6245233;22;20027;-78
2021/10/22 10:15:07;;;;;;;4.28;0.80;;;;;;;8.50;69.75;99107.63;6248372;22;20147;-79
2021/10/22 10:17:34;;;;;;;5.15;0.60;;;;;;;8.51;68.61;99113.81;6251202;22;20004;-81
2021/10/22 10:20:05;;;;;;;3.30;0.77;;;;;;;8.43;68.46;99126.47;6248812;23;20019;-78
2021/10/22 10:22:32;;;;;;;5.07;0.60;;;;;;;8.37;68.12;99126.53;6247284;23;20008;-81
2021/10/22 10:25:01;;;;;;;5.68;0.90;;;;;;;8.33;68.49;99117.31;6258679;23;20012;-79
2021/10/22 10:27:27;;;;;;;8.18;1.15;;;;;;;8.10;68.54;99067.94;6259947;23;20004;-80
2021/10/22 10:29:55;;;;;;;3.78;0.80;;;;;;;8.36;67.86;99124.91;6221203;23;20102;-79
2021/10/22 10:32:23;;;;;;;6.55;1.50;;;;;;;8.33;69.90;99117.31;6246380;23;20024;-79
2021/10/22 10:34:50;;;;;;;2.88;0.77;;;;;;;8.28;68.27;99119.84;6223798;23;20016;-80
2021/10/22 10:37:25;;;;;;;2.25;0.40;;;;;;;8.33;66.79;99128.84;6249069;22;20330;-80
2021/10/22 10:39:53;;;;;;;;;;;;;;;8.37;66.59;99132.72;6256888;22;19992;-79
2021/10/22 10:42:32;;;;;;;3.58;0.70;;;;;;;8.40;67.88;99118.09;6253325;23;19914;-79
2021/10/22 10:45:19;;;;;;;5.43;0.95;;;;;;;8.44;63.35;99136.19;6252917;23;20462;-80
2021/10/22 10:48:07;;;;;;;3.28;0.57;;;;;;;8.27;64.51;99113.66;6250382;23;20043;-80
2021/10/22 10:50:40;;;;;;;4.88;0.95;;;;;;;8.37;65.50;99135.41;6258723;23;20000;-80
2021/10/22 10:53:11;;;;;;;3.35;0.63;;;;;;;8.29;66.44;99137.59;6255243;23;20007;-80
2021/10/22 10:55:41;;;;;;;4.75;0.65;;;;;;;8.38;66.21;99138.94;6254610;22;20042;-80
2021/10/22 10:58:09;;;;;;;3.65;0.90;;;;;;;8.43;65.56;99141.75;6253130;22;19996;-79
2021/10/22 11:00:39;;;;;;;7.43;1.00;;;;;;;8.44;65.98;99138.88;6254813;22;20027;-80
2021/10/22 11:03:15;;;;;;;3.20;0.77;;;;;;;8.28;65.38;99123.38;6255392;23;20361;-80
2021/10/22 11:05:48;;;;;;;11.73;1.35;;;;;;;8.44;65.88;99146.91;6253045;22;20008;-80
2021/10/22 11:08:24;;;;;;;3.97;0.88;;;;;;;8.34;65.54;99146.56;6250016;23;20015;-80
2021/10/22 11:11:07;;;;;;;3.33;0.80;;;;;;;8.40;65.81;99153.75;6248975;23;20402;-79
2021/10/22 11:14:01;;;;;;;4.78;0.55;;;;;;;8.34;65.44;99151.91;6250494;22;20024;-81
2021/10/22 11:16:36;;;;;;;8.15;1.65;;;;;;;8.44;67.55;99146.91;6210004;23;20023;-80
2021/10/22 11:19:30;;;;;;;4.53;0.95;;;;;;;8.44;67.47;99160.31;6253009;22;20453;-80
2021/10/22 11:22:02;;;;;;;6.60;1.42;;;;;;;8.41;65.41;99163.44;6249567;23;20052;-80
2021/10/22 11:24:31;;;;;;;6.65;1.20;;;;;;;8.38;64.80;99155.84;6250547;22;20004;-80
2021/10/22 11:27:15;;;;;;;6.93;0.93;;;;;;;8.43;67.55;99160.50;6251943;23;20009;-81
2021/10/22 11:29:43;;;;;;;3.03;0.40;;;;;;;8.14;63.85;99138.75;6249198;23;20035;-81
2021/10/22 11:32:30;;;;;;;5.80;0.70;;;;;;;8.41;63.96;99178.66;6251566;22;20008;-80
2021/10/22 11:35:02;;;;;;;4.47;0.90;;;;;;;8.45;62.92;99178.00;6252902;22;20349;-81
2021/10/22 11:37:40;;;;;;;2.40;0.60;;;;;;;8.32;62.05;99150.53;6225472;23;20399;-81
2021/10/22 11:40:10;;;;;;;6.75;0.90;;;;;;;8.49;62.81;99188.28;6252252;23;20032;-81
2021/10/22 11:42:38;;;;;;;1.65;0.50;;;;;;;8.31;62.63;99189.06;6250146;23;20012;-81
2021/10/22 11:45:14;;;;;;;3.38;0.55;;;;;;;8.28;63.82;99194.88;6258397;22;19999;-81
2021/10/22 11:47:39;;;;;;;9.60;0.70;;;;;;;8.27;64.02;99195.94;6255511;23;20004;-80
2021/10/22 11:50:08;;;;;;;3.53;0.70;;;;;;;8.35;61.38;99195.66;6251590;23;20027;-81
2021/10/22 11:52:33;;;;;;;3.42;0.50;;;;;;;8.27;62.07;99186.03;6258868;22;20007;-81